createdAt,value
2023-07-02T00:00:02.539Z,98.82
2023-07-02T00:01:03.511Z,98.82
2023-07-02T00:02:02.433Z,98.42
2023-07-02T00:03:02.589Z,98.93
2023-07-02T00:04:02.534Z,98.52
2023-07-02T00:05:02.478Z,98.52
2023-07-02T00:06:02.366Z,99.07
2023-07-02T00:07:02.325Z,98.72
2023-07-02T00:08:02.375Z,98.77
2023-07-02T00:09:02.379Z,98.62
2023-07-02T00:10:02.337Z,98.82
2023-07-02T00:11:02.341Z,99.38
2023-07-02T00:12:02.294Z,99.07
2023-07-02T00:13:02.269Z,99.78
2023-07-02T00:14:03.244Z,99.07
2023-07-02T00:15:02.213Z,98.57
2023-07-02T00:16:02.233Z,98.77
2023-07-02T00:17:02.300Z,98.87
2023-07-02T00:18:02.356Z,98.67
2023-07-02T00:19:02.218Z,98.87
2023-07-02T00:20:02.249Z,98.77
2023-07-02T00:21:02.203Z,98.47
2023-07-02T00:22:03.341Z,98.57
2023-07-02T00:23:02.200Z,98.16
2023-07-02T00:24:02.226Z,98.47
2023-07-02T00:25:02.178Z,98.67
2023-07-02T00:26:02.106Z,98.57
2023-07-02T00:27:02.833Z,97.76
2023-07-02T00:28:02.732Z,98.07
2023-07-02T00:29:02.061Z,97.86
2023-07-02T00:30:02.271Z,97.86
2023-07-02T00:31:02.063Z,97.45
2023-07-02T00:32:02.243Z,96.65
2023-07-02T00:33:02.261Z,97.36
2023-07-02T00:34:02.053Z,97.36
2023-07-02T00:35:01.997Z,97.05
2023-07-02T00:36:01.997Z,96.95
2023-07-02T00:37:02.014Z,96.75
2023-07-02T00:38:02.042Z,96.75
2023-07-02T00:39:02.055Z,97.25
2023-07-02T00:40:02.006Z,97.36
2023-07-02T00:41:02.958Z,97.25
2023-07-02T00:42:01.929Z,97.36
2023-07-02T00:43:01.945Z,97.66
2023-07-02T00:44:01.873Z,97.25
2023-07-02T00:45:01.937Z,97.36
2023-07-02T00:46:01.901Z,97.86
2023-07-02T00:47:01.870Z,97.45
2023-07-02T00:48:01.962Z,97.45
2023-07-02T00:49:01.935Z,96.65
2023-07-02T00:50:01.864Z,97.16
2023-07-02T00:51:01.915Z,96.75
2023-07-02T00:52:01.816Z,97.16
2023-07-02T00:53:02.484Z,97.16
2023-07-02T00:54:01.904Z,97.45
2023-07-02T00:55:01.962Z,97.60
2023-07-02T00:56:01.830Z,97.86
2023-07-02T00:57:02.535Z,97.86
2023-07-02T00:58:01.841Z,97.86
2023-07-02T00:59:01.912Z,98.21
2023-07-02T01:00:02.194Z,98.82
2023-07-02T01:01:01.801Z,98.71
2023-07-02T01:02:02.005Z,99.42
2023-07-02T01:03:01.713Z,99.12
2023-07-02T01:04:01.671Z,99.52
2023-07-02T01:05:02.785Z,99.02
2023-07-02T01:06:01.794Z,99.22
2023-07-02T01:07:01.975Z,99.07
2023-07-02T01:08:01.766Z,98.82
2023-07-02T01:09:01.620Z,98.66
2023-07-02T01:10:01.796Z,98.76
2023-07-02T01:11:01.841Z,99.47
2023-07-02T01:12:01.641Z,99.67
2023-07-02T01:13:02.713Z,99.77
2023-07-02T01:14:01.701Z,99.16
2023-07-02T01:15:01.637Z,99.07
2023-07-02T01:16:01.666Z,99.37
2023-07-02T01:17:01.619Z,99.67
2023-07-02T01:18:01.747Z,99.57
2023-07-02T01:19:01.558Z,99.27
2023-07-02T01:20:01.632Z,99.67
2023-07-02T01:21:01.585Z,99.98
2023-07-02T01:22:01.588Z,99.87
2023-07-02T01:23:01.645Z,99.32
2023-07-02T01:24:01.450Z,99.22
2023-07-02T01:25:01.504Z,99.12
2023-07-02T01:26:01.673Z,99.12
2023-07-02T01:27:01.605Z,98.92
2023-07-02T01:28:01.617Z,98.92
2023-07-02T01:29:01.468Z,98.11
2023-07-02T01:30:01.638Z,98.82
2023-07-02T01:31:01.456Z,98.56
2023-07-02T01:32:01.466Z,97.91
2023-07-02T01:33:01.430Z,97.65
2023-07-02T01:34:02.152Z,97.05
2023-07-02T01:35:01.430Z,96.13
2023-07-02T01:36:01.388Z,96.94
2023-07-02T01:37:01.408Z,97.34
2023-07-02T01:38:01.361Z,97.96
2023-07-02T01:39:01.349Z,98.36
2023-07-02T01:40:01.835Z,97.85
2023-07-02T01:41:01.360Z,97.05
2023-07-02T01:42:02.403Z,97.25
2023-07-02T01:43:01.483Z,97.25
2023-07-02T01:44:01.353Z,97.34
2023-07-02T01:45:01.340Z,99.07
2023-07-02T01:46:01.409Z,98.61
2023-07-02T01:47:01.448Z,98.86
2023-07-02T01:48:02.319Z,96.94
2023-07-02T01:50:22.333Z,97.05
2023-07-02T01:50:24.450Z,96.84
2023-07-02T01:51:24.048Z,96.54
2023-07-02T01:52:24.394Z,96.64
2023-07-02T01:53:24.078Z,95.83
2023-07-02T01:54:24.340Z,96.74
2023-07-02T01:55:24.316Z,97.25
2023-07-02T01:56:24.650Z,97.45
2023-07-02T01:57:24.546Z,98.05
2023-07-02T01:58:24.065Z,98.56
2023-07-02T01:59:24.538Z,99.99
2023-07-02T02:00:24.342Z,99.99
2023-07-02T02:01:24.307Z,99.99
2023-07-02T02:02:24.027Z,99.99
2023-07-02T02:03:25.383Z,99.99
2023-07-02T02:04:24.330Z,99.99
2023-07-02T02:05:24.178Z,99.99
2023-07-02T02:06:24.147Z,99.99
2023-07-02T02:07:23.951Z,99.99
2023-07-02T02:08:24.341Z,99.99
2023-07-02T02:09:24.982Z,99.99
2023-07-02T02:10:24.242Z,99.99
2023-07-02T02:11:24.041Z,99.99
2023-07-02T02:12:23.793Z,99.99
2023-07-02T02:13:24.269Z,99.99
2023-07-02T02:14:28.691Z,99.99
2023-07-02T02:15:24.119Z,99.99
2023-07-02T02:16:25.398Z,99.99
2023-07-02T02:17:23.673Z,99.99
2023-07-02T02:18:25.054Z,99.99
2023-07-02T02:19:23.781Z,99.99
2023-07-02T02:20:23.793Z,99.99
2023-07-02T02:21:23.877Z,99.99
2023-07-02T02:23:44.232Z,99.99
2023-07-02T02:23:46.565Z,99.97
2023-07-02T02:24:46.289Z,99.99
2023-07-02T02:25:46.332Z,99.77
2023-07-02T02:26:46.185Z,99.87
2023-07-02T02:27:46.330Z,99.56
2023-07-02T02:28:46.326Z,99.87
2023-07-02T02:29:46.317Z,99.05
2023-07-02T02:30:46.189Z,99.05
2023-07-02T02:31:46.304Z,98.65
2023-07-02T02:34:06.780Z,99.05
2023-07-02T02:34:08.510Z,98.96
2023-07-02T02:35:08.939Z,98.65
2023-07-02T02:36:08.407Z,98.05
2023-07-02T02:37:08.841Z,98.14
2023-07-02T02:38:08.821Z,98.96
2023-07-02T02:39:08.547Z,98.61
2023-07-02T02:40:08.771Z,97.90
2023-07-02T02:41:08.569Z,98.10
2023-07-02T02:42:08.747Z,96.98
2023-07-02T02:43:08.715Z,97.39
2023-07-02T02:44:08.349Z,97.44
2023-07-02T02:45:08.880Z,97.64
2023-07-02T02:46:10.013Z,98.25
2023-07-02T02:47:37.950Z,97.94
2023-07-02T02:48:37.420Z,97.85
2023-07-02T02:49:37.503Z,98.05
2023-07-02T02:50:37.109Z,98.05
2023-07-02T02:51:37.487Z,98.05
2023-07-02T02:52:37.954Z,98.14
2023-07-02T02:54:58.048Z,97.94
2023-07-02T02:55:00.108Z,97.94
2023-07-02T02:55:59.937Z,97.85
2023-07-02T02:57:00.592Z,98.14
2023-07-02T02:57:59.808Z,97.85
2023-07-02T02:59:00.037Z,98.25
2023-07-02T02:59:59.753Z,98.55
2023-07-02T03:00:59.916Z,98.96
2023-07-02T03:02:00.345Z,99.26
2023-07-02T03:02:59.851Z,99.10
2023-07-02T03:03:59.558Z,98.80
2023-07-02T03:05:00.488Z,99.10
2023-07-02T03:06:00.238Z,98.90
2023-07-02T03:06:59.672Z,99.01
2023-07-02T03:09:21.491Z,99.51
2023-07-02T03:09:24.368Z,99.91
2023-07-02T03:10:24.351Z,99.99
2023-07-02T03:11:24.181Z,99.99
2023-07-02T03:15:16.749Z,99.61
2023-07-02T03:16:16.382Z,99.61
2023-07-02T03:17:16.501Z,99.96
2023-07-02T03:18:16.538Z,99.41
2023-07-02T03:19:16.265Z,99.99
2023-07-02T03:20:16.894Z,99.99
2023-07-02T03:21:16.892Z,99.76
2023-07-02T03:23:38.406Z,99.96
2023-07-02T03:23:40.986Z,99.96
2023-07-02T03:24:41.146Z,99.99
2023-07-02T03:25:40.720Z,99.46
2023-07-02T03:26:41.627Z,99.99
2023-07-02T03:27:47.844Z,99.35
2023-07-02T03:28:46.699Z,99.76
2023-07-02T03:29:40.001Z,99.76
2023-07-02T03:30:40.006Z,99.99
2023-07-02T03:31:40.065Z,99.99
2023-07-02T03:32:40.779Z,99.99
2023-07-02T03:33:40.318Z,99.99
2023-07-02T03:34:40.004Z,99.96
2023-07-02T03:35:43.905Z,99.60
2023-07-02T03:36:40.085Z,99.91
2023-07-02T03:37:39.936Z,99.70
2023-07-02T03:38:40.219Z,99.80
2023-07-02T03:39:40.620Z,99.80
2023-07-02T03:40:39.966Z,99.99
2023-07-02T03:43:00.717Z,99.70
2023-07-02T03:43:02.626Z,99.99
2023-07-02T03:45:26.793Z,99.99
2023-07-02T03:45:29.705Z,99.99
2023-07-02T03:46:28.689Z,99.99
2023-07-02T03:47:28.572Z,99.99
2023-07-02T03:48:30.008Z,99.99
2023-07-02T03:49:29.087Z,99.99
2023-07-02T03:50:29.196Z,99.99
2023-07-02T03:51:28.705Z,99.99
2023-07-02T03:52:28.695Z,99.99
2023-07-02T03:53:28.852Z,99.99
2023-07-02T03:54:28.700Z,99.99
2023-07-02T03:55:28.641Z,99.99
2023-07-02T03:56:28.325Z,99.99
2023-07-02T03:57:28.800Z,99.99
2023-07-02T03:58:28.418Z,99.99
2023-07-02T03:59:28.275Z,99.99
2023-07-02T04:00:28.402Z,99.99
2023-07-02T04:01:28.908Z,99.99
2023-07-02T04:02:28.384Z,99.99
2023-07-02T04:03:28.349Z,99.99
2023-07-02T04:04:28.261Z,99.99
2023-07-02T04:05:30.402Z,99.99
2023-07-02T04:06:29.050Z,99.99
2023-07-02T04:07:28.080Z,99.99
2023-07-02T04:08:28.794Z,99.80
2023-07-02T04:09:28.119Z,99.60
2023-07-02T04:10:28.083Z,99.99
2023-07-02T04:11:29.325Z,99.99
2023-07-02T04:12:28.092Z,99.30
2023-07-02T04:13:28.050Z,98.99
2023-07-02T04:14:28.031Z,99.19
2023-07-02T04:15:28.304Z,99.55
2023-07-02T04:16:28.408Z,99.05
2023-07-02T04:17:28.243Z,99.19
2023-07-02T04:18:27.990Z,99.25
2023-07-02T04:19:28.057Z,98.95
2023-07-02T04:20:28.165Z,99.25
2023-07-02T04:21:28.004Z,98.85
2023-07-02T04:22:28.010Z,99.15
2023-07-02T04:23:27.975Z,98.74
2023-07-02T04:24:28.359Z,98.24
2023-07-02T04:25:44.640Z,98.09
2023-07-02T04:26:51.595Z,97.99
2023-07-02T04:27:47.368Z,98.03
2023-07-02T04:28:28.976Z,97.49
2023-07-02T04:29:27.909Z,97.63
2023-07-02T04:30:27.847Z,97.58
2023-07-02T04:31:28.022Z,98.14
2023-07-02T04:32:27.889Z,97.94
2023-07-02T04:33:27.838Z,97.69
2023-07-02T04:34:27.845Z,97.49
2023-07-02T04:35:28.559Z,97.49
2023-07-02T04:36:28.026Z,97.43
2023-07-02T04:37:27.902Z,98.19
2023-07-02T04:38:27.833Z,97.99
2023-07-02T04:39:27.849Z,97.49
2023-07-02T04:40:27.955Z,97.58
2023-07-02T04:41:28.200Z,97.18
2023-07-02T04:42:27.702Z,96.78
2023-07-02T04:43:28.742Z,96.83
2023-07-02T04:44:27.680Z,96.93
2023-07-02T04:45:27.684Z,96.88
2023-07-02T04:46:27.711Z,95.92
2023-07-02T04:47:27.726Z,96.07
2023-07-02T04:48:27.754Z,95.72
2023-07-02T04:49:27.721Z,95.21
2023-07-02T04:50:27.614Z,95.21
2023-07-02T04:51:27.592Z,95.47
2023-07-02T04:52:27.644Z,94.86
2023-07-02T04:53:27.586Z,94.26
2023-07-02T04:54:28.788Z,94.06
2023-07-02T04:55:27.572Z,94.46
2023-07-02T04:56:27.720Z,93.35
2023-07-02T04:57:27.556Z,93.55
2023-07-02T04:58:27.577Z,93.30
2023-07-02T04:59:27.514Z,93.40
2023-07-02T05:00:27.714Z,93.30
2023-07-02T05:01:27.569Z,93.00
2023-07-02T05:02:27.718Z,92.90
2023-07-02T05:03:27.616Z,92.96
2023-07-02T05:04:27.499Z,92.76
2023-07-02T05:05:27.438Z,92.25
2023-07-02T05:06:28.261Z,92.35
2023-07-02T05:07:27.533Z,91.24
2023-07-02T05:08:30.433Z,91.60
2023-07-02T05:09:27.450Z,90.08
2023-07-02T05:10:27.459Z,90.39
2023-07-02T05:11:27.365Z,90.14
2023-07-02T05:12:27.359Z,89.23
2023-07-02T05:13:27.429Z,89.43
2023-07-02T05:17:19.193Z,88.28
2023-07-02T05:18:19.168Z,87.27
2023-07-02T05:19:19.329Z,87.01
2023-07-02T05:20:19.517Z,86.87
2023-07-02T05:21:19.076Z,85.96
2023-07-02T05:22:20.113Z,86.16
2023-07-02T05:23:19.024Z,86.16
2023-07-02T05:24:19.161Z,86.07
2023-07-02T05:25:19.065Z,86.13
2023-07-02T05:26:19.093Z,85.62
2023-07-02T05:27:20.001Z,85.46
2023-07-02T05:28:18.994Z,85.62
2023-07-02T05:29:19.050Z,85.92
2023-07-02T05:30:18.977Z,84.61
2023-07-02T05:31:18.980Z,84.81
2023-07-02T05:32:18.907Z,84.71
2023-07-02T05:33:18.955Z,84.91
2023-07-02T05:34:18.984Z,84.97
2023-07-02T05:35:18.954Z,84.27
2023-07-02T05:36:18.923Z,84.13
2023-07-02T05:37:18.903Z,84.03
2023-07-02T05:38:18.904Z,83.02
2023-07-02T05:39:18.897Z,83.12
2023-07-02T05:40:19.009Z,83.02
2023-07-02T05:41:18.859Z,83.02
2023-07-02T05:42:18.875Z,84.03
2023-07-02T05:43:18.842Z,84.03
2023-07-02T05:44:18.880Z,83.32
2023-07-02T05:45:18.912Z,82.42
2023-07-02T05:46:18.785Z,82.82
2023-07-02T05:47:18.788Z,82.07
2023-07-02T05:48:18.773Z,81.91
2023-07-02T05:49:18.781Z,82.68
2023-07-02T05:50:18.781Z,82.11
2023-07-02T05:51:18.930Z,82.18
2023-07-02T05:52:19.075Z,82.01
2023-07-02T05:53:18.845Z,81.87
2023-07-02T05:54:18.718Z,82.11
2023-07-02T05:55:18.665Z,82.18
2023-07-02T05:56:19.053Z,82.11
2023-07-02T05:57:18.675Z,81.77
2023-07-02T05:58:18.668Z,82.07
2023-07-02T05:59:18.662Z,82.31
2023-07-02T06:00:18.662Z,82.18
2023-07-02T06:01:18.614Z,81.93
2023-07-02T06:02:18.666Z,80.52
2023-07-02T06:03:18.597Z,79.28
2023-07-02T06:04:18.632Z,78.56
2023-07-02T06:05:18.624Z,76.32
2023-07-02T06:06:19.291Z,73.80
2023-07-02T06:07:18.566Z,72.90
2023-07-02T06:08:18.537Z,72.06
2023-07-02T06:09:18.611Z,70.96
2023-07-02T06:10:18.505Z,69.56
2023-07-02T06:11:18.827Z,70.69
2023-07-02T06:12:18.502Z,71.96
2023-07-02T06:13:18.466Z,73.44
2023-07-02T06:14:18.585Z,74.61
2023-07-02T06:15:18.931Z,74.07
2023-07-02T06:16:18.554Z,75.45
2023-07-02T06:17:18.549Z,75.27
2023-07-02T06:18:18.484Z,74.61
2023-07-02T06:19:18.524Z,76.05
2023-07-02T06:20:18.400Z,76.35
2023-07-02T06:21:18.385Z,75.95
2023-07-02T06:22:18.386Z,76.86
2023-07-02T06:23:18.355Z,76.79
2023-07-02T06:24:18.449Z,76.39
2023-07-02T06:25:18.311Z,75.38
2023-07-02T06:26:18.360Z,72.47
2023-07-02T06:27:18.296Z,70.43
2023-07-02T06:28:18.272Z,68.76
2023-07-02T06:29:18.331Z,65.47
2023-07-02T06:30:18.847Z,65.23
2023-07-02T06:31:18.301Z,63.67
2023-07-02T06:32:18.337Z,64.80
2023-07-02T06:33:18.235Z,64.77
2023-07-02T06:34:18.224Z,62.84
2023-07-02T06:35:18.255Z,63.14
2023-07-02T06:36:18.604Z,62.81
2023-07-02T06:37:19.276Z,61.29
2023-07-02T06:38:18.190Z,61.23
2023-07-02T06:39:18.170Z,59.58
2023-07-02T06:40:18.156Z,58.23
2023-07-02T06:41:18.164Z,58.53
2023-07-02T06:42:18.280Z,57.51
2023-07-02T06:43:18.135Z,57.46
2023-07-02T06:44:18.157Z,58.18
2023-07-02T06:45:18.078Z,58.61
2023-07-02T06:46:18.104Z,58.01
2023-07-02T06:47:20.754Z,58.28
2023-07-02T06:48:18.075Z,58.09
2023-07-02T06:49:18.088Z,58.24
2023-07-02T06:50:18.055Z,60.09
2023-07-02T06:51:18.100Z,62.04
2023-07-02T06:52:18.013Z,66.13
2023-07-02T06:53:18.115Z,66.39
2023-07-02T06:54:18.021Z,69.46
2023-07-02T06:55:18.057Z,70.83
2023-07-02T06:56:18.007Z,71.83
2023-07-02T06:57:17.980Z,72.33
2023-07-02T06:58:18.388Z,72.47
2023-07-02T06:59:17.954Z,72.50
2023-07-02T07:00:18.073Z,72.90
2023-07-02T07:01:17.956Z,72.53
2023-07-02T07:02:17.929Z,73.44
2023-07-02T07:03:17.949Z,74.15
2023-07-02T07:04:17.968Z,74.48
2023-07-02T07:05:17.886Z,75.05
2023-07-02T07:06:17.969Z,74.38
2023-07-02T07:07:18.701Z,74.82
2023-07-02T07:08:17.884Z,75.42
2023-07-02T07:09:17.879Z,75.12
2023-07-02T07:10:17.877Z,75.15
2023-07-02T07:11:17.780Z,75.56
2023-07-02T07:12:19.123Z,76.36
2023-07-02T07:13:18.708Z,75.19
2023-07-02T07:14:17.810Z,75.23
2023-07-02T07:15:17.790Z,75.53
2023-07-02T07:16:17.770Z,76.03
2023-07-02T07:17:17.818Z,76.37
2023-07-02T07:18:17.800Z,76.34
2023-07-02T07:19:17.762Z,76.74
2023-07-02T07:20:17.691Z,76.40
2023-07-02T07:21:17.855Z,76.90
2023-07-02T07:22:17.686Z,75.63
2023-07-02T07:23:20.629Z,75.43
2023-07-02T07:24:17.757Z,76.34
2023-07-02T07:25:19.109Z,76.40
2023-07-02T07:26:18.842Z,77.11
2023-07-02T07:27:17.672Z,76.80
2023-07-02T07:28:17.685Z,75.05
2023-07-02T07:29:17.641Z,76.16
2023-07-02T07:30:17.605Z,75.52
2023-07-02T07:31:17.746Z,75.56
2023-07-02T07:32:17.696Z,75.52
2023-07-02T07:33:17.619Z,74.38
2023-07-02T07:34:17.562Z,73.84
2023-07-02T07:35:17.536Z,73.30
2023-07-02T07:36:17.571Z,72.60
2023-07-02T07:37:17.822Z,72.80
2023-07-02T07:38:17.607Z,72.67
2023-07-02T07:39:17.588Z,73.98
2023-07-02T07:40:17.519Z,73.27
2023-07-02T07:41:17.520Z,73.81
2023-07-02T07:42:17.496Z,73.91
2023-07-02T07:43:17.526Z,75.26
2023-07-02T07:44:17.430Z,75.62
2023-07-02T07:45:17.470Z,75.15
2023-07-02T07:46:17.466Z,75.66
2023-07-02T07:47:17.478Z,75.46
2023-07-02T07:48:17.748Z,76.67
2023-07-02T07:49:17.399Z,76.46
2023-07-02T07:50:17.367Z,76.36
2023-07-02T07:51:17.353Z,76.46
2023-07-02T07:52:17.446Z,76.56
2023-07-02T07:53:17.391Z,76.50
2023-07-02T07:54:17.415Z,76.90
2023-07-02T07:55:17.471Z,76.90
2023-07-02T07:56:17.322Z,77.17
2023-07-02T07:57:17.341Z,77.27
2023-07-02T07:58:17.394Z,76.90
2023-07-02T07:59:17.323Z,76.56
2023-07-02T08:00:17.346Z,76.87
2023-07-02T08:01:17.262Z,77.23
2023-07-02T08:02:17.370Z,75.62
2023-07-02T08:03:17.304Z,75.35
2023-07-02T08:04:17.464Z,76.43
2023-07-02T08:05:17.253Z,76.23
2023-07-02T08:06:17.233Z,75.72
2023-07-02T08:07:17.309Z,74.18
2023-07-02T08:08:17.218Z,74.15
2023-07-02T08:09:17.156Z,73.14
2023-07-02T08:10:17.186Z,73.00
2023-07-02T08:11:17.180Z,70.09
2023-07-02T08:12:17.144Z,70.39
2023-07-02T08:13:17.179Z,70.56
2023-07-02T08:14:17.176Z,70.89
2023-07-02T08:15:17.147Z,71.20
2023-07-02T08:16:17.269Z,71.30
2023-07-02T08:17:17.054Z,71.50
2023-07-02T08:18:17.129Z,67.79
2023-07-02T08:19:17.079Z,67.23
2023-07-02T08:20:17.742Z,64.33
2023-07-02T08:21:17.395Z,64.73
2023-07-02T08:22:17.077Z,64.83
2023-07-02T08:23:17.036Z,65.20
2023-07-02T08:24:17.242Z,63.23
2023-07-02T08:25:16.996Z,62.34
2023-07-02T08:26:17.040Z,61.54
2023-07-02T08:27:16.984Z,63.26
2023-07-02T08:28:16.947Z,60.58
2023-07-02T08:29:17.234Z,59.52
2023-07-02T08:30:16.943Z,58.29
2023-07-02T08:31:17.912Z,59.19
2023-07-02T08:32:17.140Z,60.15
2023-07-02T08:33:17.035Z,61.63
2023-07-02T08:34:16.894Z,61.89
2023-07-02T08:35:16.919Z,61.76
2023-07-02T08:36:16.957Z,59.55
2023-07-02T08:37:16.916Z,56.98
2023-07-02T08:38:16.972Z,55.76
2023-07-02T08:39:16.894Z,56.18
2023-07-02T08:40:17.368Z,55.51
2023-07-02T08:41:17.131Z,54.08
2023-07-02T08:42:17.498Z,55.21
2023-07-02T08:43:19.837Z,56.76
2023-07-02T08:44:17.853Z,57.78
2023-07-02T08:45:16.804Z,58.15
2023-07-02T08:46:17.323Z,57.90
2023-07-02T08:47:20.374Z,55.00
2023-07-02T08:48:17.580Z,55.13
2023-07-02T08:49:16.722Z,56.85
2023-07-02T08:50:17.344Z,54.66
2023-07-02T08:51:17.529Z,54.33
2023-07-02T08:52:17.433Z,53.78
2023-07-02T08:53:18.523Z,55.35
2023-07-02T08:54:17.672Z,56.95
2023-07-02T08:55:17.595Z,55.57
2023-07-02T08:56:18.152Z,52.67
2023-07-02T08:57:16.835Z,54.68
2023-07-02T08:58:16.680Z,55.80
2023-07-02T08:59:16.937Z,52.56
2023-07-02T09:00:16.866Z,54.24
2023-07-02T09:01:16.604Z,56.70
2023-07-02T09:02:16.842Z,55.74
2023-07-02T09:03:16.637Z,56.92
2023-07-02T09:04:16.693Z,59.45
2023-07-02T09:05:16.604Z,60.88
2023-07-02T09:06:17.259Z,60.68
2023-07-02T09:07:16.730Z,60.18
2023-07-02T09:08:16.587Z,60.91
2023-07-02T09:09:16.546Z,60.58
2023-07-02T09:10:16.723Z,60.58
2023-07-02T09:11:16.592Z,60.12
2023-07-02T09:12:16.515Z,58.14
2023-07-02T09:13:16.642Z,59.14
2023-07-02T09:14:16.475Z,57.86
2023-07-02T09:15:16.478Z,54.26
2023-07-02T09:16:16.516Z,55.31
2023-07-02T09:17:17.586Z,56.16
2023-07-02T09:18:16.465Z,56.85
2023-07-02T09:19:16.481Z,57.68
2023-07-02T09:20:16.456Z,56.77
2023-07-02T09:21:17.214Z,57.59
2023-07-02T09:22:16.394Z,58.52
2023-07-02T09:23:17.603Z,60.45
2023-07-02T09:24:16.397Z,60.58
2023-07-02T09:25:16.358Z,60.65
2023-07-02T09:26:16.319Z,60.45
2023-07-02T09:27:16.921Z,58.89
2023-07-02T09:28:17.321Z,58.65
2023-07-02T09:29:16.266Z,60.18
2023-07-02T09:30:18.073Z,59.41
2023-07-02T09:31:16.486Z,60.11
2023-07-02T09:32:16.497Z,60.64
2023-07-02T09:33:16.331Z,60.53
2023-07-02T09:34:16.357Z,60.31
2023-07-02T09:35:16.260Z,60.53
2023-07-02T09:36:16.213Z,61.54
2023-07-02T09:37:16.220Z,59.52
2023-07-02T09:38:16.248Z,57.68
2023-07-02T09:39:16.732Z,54.81
2023-07-02T09:40:16.183Z,54.06
2023-07-02T09:41:16.173Z,53.96
2023-07-02T09:42:16.246Z,54.36
2023-07-02T09:43:16.483Z,52.51
2023-07-02T09:44:16.277Z,53.58
2023-07-02T09:45:16.114Z,52.56
2023-07-02T09:46:16.196Z,51.05
2023-07-02T09:47:16.114Z,52.49
2023-07-02T09:48:16.124Z,51.95
2023-07-02T09:49:16.148Z,52.26
2023-07-02T09:50:16.071Z,51.75
2023-07-02T09:51:16.839Z,52.17
2023-07-02T09:52:16.091Z,51.12
2023-07-02T09:53:16.724Z,51.97
2023-07-02T09:54:16.158Z,51.95
2023-07-02T09:55:16.019Z,51.25
2023-07-02T09:56:16.031Z,51.52
2023-07-02T09:57:16.225Z,51.28
2023-07-02T09:58:16.029Z,48.66
2023-07-02T09:59:16.055Z,48.83
2023-07-02T10:00:15.933Z,48.71
2023-07-02T10:01:16.638Z,50.68
2023-07-02T10:02:17.143Z,49.51
2023-07-02T10:03:16.546Z,48.83
2023-07-02T10:04:15.977Z,51.57
2023-07-02T10:05:16.138Z,52.27
2023-07-02T10:06:15.944Z,50.32
2023-07-02T10:07:15.986Z,49.73
2023-07-02T10:08:15.927Z,51.37
2023-07-02T10:09:15.857Z,49.76
2023-07-02T10:10:18.443Z,48.56
2023-07-02T10:11:15.864Z,49.53
2023-07-02T10:12:15.920Z,49.01
2023-07-02T10:13:15.936Z,49.28
2023-07-02T10:14:15.887Z,49.08
2023-07-02T10:15:16.415Z,48.91
2023-07-02T10:16:15.819Z,49.10
2023-07-02T10:17:15.866Z,49.55
2023-07-02T10:18:15.806Z,50.30
2023-07-02T10:19:15.811Z,52.02
2023-07-02T10:20:15.766Z,52.55
2023-07-02T10:21:16.852Z,52.17
2023-07-02T10:22:15.789Z,52.19
2023-07-02T10:23:15.756Z,52.82
2023-07-02T10:24:15.716Z,52.62
2023-07-02T10:25:15.704Z,54.94
2023-07-02T10:26:15.816Z,53.94
2023-07-02T10:27:15.704Z,54.35
2023-07-02T10:28:15.766Z,54.32
2023-07-02T10:29:15.695Z,53.79
2023-07-02T10:30:15.672Z,52.44
2023-07-02T10:31:15.672Z,52.27
2023-07-02T10:32:15.647Z,51.89
2023-07-02T10:33:16.467Z,52.49
2023-07-02T10:34:16.235Z,52.09
2023-07-02T10:35:15.702Z,52.02
2023-07-02T10:36:15.666Z,51.47
2023-07-02T10:37:15.610Z,49.40
2023-07-02T10:38:15.591Z,49.13
2023-07-02T10:39:15.564Z,48.80
2023-07-02T10:40:15.641Z,49.33
2023-07-02T10:41:15.545Z,48.58
2023-07-02T10:42:15.531Z,50.45
2023-07-02T10:43:15.760Z,49.63
2023-07-02T10:44:15.506Z,48.68
2023-07-02T10:45:15.564Z,49.82
2023-07-02T10:46:15.521Z,50.74
2023-07-02T10:47:15.664Z,51.57
2023-07-02T10:48:15.478Z,51.79
2023-07-02T10:49:15.483Z,52.19
2023-07-02T10:50:15.570Z,52.12
2023-07-02T10:51:15.375Z,52.02
2023-07-02T10:52:16.348Z,52.52
2023-07-02T10:53:15.446Z,52.00
2023-07-02T10:54:15.341Z,51.97
2023-07-02T10:55:15.345Z,50.12
2023-07-02T10:56:15.386Z,49.98
2023-07-02T10:57:19.290Z,48.93
2023-07-02T10:58:16.267Z,49.23
2023-07-02T10:59:15.346Z,49.05
2023-07-02T11:00:15.496Z,49.15
2023-07-02T11:01:15.836Z,48.40
2023-07-02T11:02:15.463Z,49.72
2023-07-02T11:03:15.510Z,49.00
2023-07-02T11:04:15.337Z,49.62
2023-07-02T11:05:15.274Z,49.05
2023-07-02T11:06:15.393Z,49.27
2023-07-02T11:07:16.072Z,49.47
2023-07-02T11:08:15.222Z,49.17
2023-07-02T11:09:15.257Z,49.29
2023-07-02T11:10:15.490Z,49.47
2023-07-02T11:11:15.334Z,49.44
2023-07-02T11:12:15.223Z,50.37
2023-07-02T11:13:15.974Z,51.77
2023-07-02T11:14:15.152Z,50.15
2023-07-02T11:15:15.296Z,51.07
2023-07-02T11:16:15.744Z,50.97
2023-07-02T11:17:15.438Z,51.59
2023-07-02T11:18:15.283Z,52.12
2023-07-02T11:19:15.352Z,52.72
2023-07-02T11:20:15.905Z,52.80
2023-07-02T11:21:15.276Z,52.27
2023-07-02T11:22:15.100Z,51.37
2023-07-02T11:23:15.077Z,51.87
2023-07-02T11:24:15.093Z,51.97
2023-07-02T11:25:15.081Z,51.57
2023-07-02T11:26:15.164Z,51.54
2023-07-02T11:27:15.041Z,52.14
2023-07-02T11:28:15.029Z,52.34
2023-07-02T11:29:15.254Z,51.34
2023-07-02T11:30:15.050Z,51.94
2023-07-02T11:31:15.031Z,51.92
2023-07-02T11:32:14.963Z,51.97
2023-07-02T11:33:15.025Z,51.05
2023-07-02T11:34:15.711Z,50.85
2023-07-02T11:35:15.666Z,51.29
2023-07-02T11:36:14.996Z,51.52
2023-07-02T11:37:14.962Z,51.52
2023-07-02T11:38:15.005Z,52.72
2023-07-02T11:39:14.951Z,52.22
2023-07-02T11:40:15.016Z,51.34
2023-07-02T11:41:15.674Z,52.04
2023-07-02T11:42:14.942Z,52.14
2023-07-02T11:43:14.916Z,51.47
2023-07-02T11:44:14.916Z,52.19
2023-07-02T11:45:16.063Z,52.29
2023-07-02T11:46:14.951Z,52.09
2023-07-02T11:47:14.976Z,51.59
2023-07-02T11:48:14.760Z,52.49
2023-07-02T11:49:14.916Z,52.09
2023-07-02T11:50:25.660Z,53.69
2023-07-02T11:51:16.870Z,52.89
2023-07-02T11:52:14.842Z,53.27
2023-07-02T11:53:14.714Z,52.17
2023-07-02T11:54:14.806Z,51.84
2023-07-02T11:55:14.744Z,52.25
2023-07-02T11:56:14.706Z,52.42
2023-07-02T11:57:14.795Z,51.40
2023-07-02T11:58:14.759Z,52.29
2023-07-02T11:59:15.392Z,52.19
2023-07-02T12:00:14.789Z,51.17
2023-07-02T12:01:14.739Z,51.89
2023-07-02T12:02:14.788Z,51.25
2023-07-02T12:03:14.741Z,51.54
2023-07-02T12:04:15.507Z,51.35
2023-07-02T12:05:14.740Z,50.65
2023-07-02T12:06:15.903Z,51.47
2023-07-02T12:07:16.641Z,51.40
2023-07-02T12:08:16.176Z,52.52
2023-07-02T12:09:17.042Z,51.72
2023-07-02T12:10:17.953Z,52.82
2023-07-02T12:11:17.038Z,52.69
2023-07-02T12:12:16.948Z,53.02
2023-07-02T12:13:18.023Z,52.12
2023-07-02T12:14:18.337Z,52.12
2023-07-02T12:15:14.636Z,52.04
2023-07-02T12:16:15.965Z,52.47
2023-07-02T12:17:16.991Z,52.67
2023-07-02T12:18:17.149Z,53.47
2023-07-02T12:19:14.763Z,53.07
2023-07-02T12:20:15.959Z,52.39
2023-07-02T12:21:16.272Z,53.89
2023-07-02T12:22:14.652Z,52.89
2023-07-02T12:23:14.486Z,53.69
2023-07-02T12:24:14.757Z,53.52
2023-07-02T12:25:14.475Z,54.02
2023-07-02T12:26:14.650Z,52.72
2023-07-02T12:27:14.373Z,53.62
2023-07-02T12:28:14.420Z,54.10
2023-07-02T12:29:14.604Z,52.49
2023-07-02T12:30:14.398Z,53.57
2023-07-02T12:31:14.396Z,53.34
2023-07-02T12:32:14.388Z,52.19
2023-07-02T12:33:14.449Z,52.27
2023-07-02T12:34:14.500Z,52.29
2023-07-02T12:35:14.561Z,52.59
2023-07-02T12:36:15.317Z,52.99
2023-07-02T12:37:14.342Z,52.47
2023-07-02T12:38:14.246Z,53.77
2023-07-02T12:39:15.601Z,53.57
2023-07-02T12:40:14.286Z,53.07
2023-07-02T12:41:14.248Z,53.34
2023-07-02T12:42:14.540Z,53.52
2023-07-02T12:43:14.778Z,52.12
2023-07-02T12:44:14.273Z,51.92
2023-07-02T12:45:14.849Z,51.75
2023-07-02T12:46:14.225Z,52.22
2023-07-02T12:47:14.218Z,52.12
2023-07-02T12:48:14.162Z,51.89
2023-07-02T12:49:14.219Z,52.00
2023-07-02T12:50:14.160Z,51.70
2023-07-02T12:51:14.142Z,51.67
2023-07-02T12:52:14.132Z,51.07
2023-07-02T12:53:14.156Z,50.90
2023-07-02T12:54:14.931Z,51.42
2023-07-02T12:55:14.145Z,50.52
2023-07-02T12:56:14.116Z,50.84
2023-07-02T12:57:14.353Z,52.22
2023-07-02T12:58:14.130Z,52.09
2023-07-02T12:59:14.074Z,51.82
2023-07-02T13:00:14.299Z,51.22
2023-07-02T13:01:14.043Z,51.72